< Cyclone 199611 1996 Season Cyclone 199613 >
Cyclone 199612 (KIRSTY)
General InformationDetailed Track InformationTrack Information on Google MapsList of All Images || ResourceGoogle EarthGE AnimationAtom FeedGeoJSON
Detalied Best Track Wind (Time Zone = UTC)
Year Month Day Hour Lat. Long. Wind (kt) Gust (kt) Direc. of Major Storm Axis Radius of Major Storm Axis (nm) Radius of Minor Storm Axis (nm) Direc. of Major Gale Axis Radius of Major Gale Axis (nm) Radius of Minor Gale Axis (nm) Image
1996 3 7 10 -17.2 122.8 27 -1 symmetric - - symmetric - - Image
1996 3 7 13 -17.1 122.4 27 -1 symmetric - - symmetric - - Image
1996 3 7 16 -16.9 122.0 29 -1 symmetric - - symmetric - - Image
1996 3 7 19 -16.8 121.5 29 -1 symmetric - - symmetric - - Image
1996 3 7 22 -16.7 121.1 29 -1 symmetric - - symmetric - - Image
1996 3 8 01 -16.6 120.7 29 -1 symmetric - - symmetric - - Image
1996 3 8 04 -16.6 120.3 29 -1 symmetric - - symmetric - - Image
1996 3 8 07 -16.5 120.1 29 -1 symmetric - - symmetric - - Image
1996 3 8 10 -16.2 120.0 35 -1 symmetric - - symmetric - - Image
1996 3 8 13 -15.9 119.9 35 -1 symmetric - - symmetric - - Image
1996 3 8 16 -15.5 119.8 35 -1 symmetric - - symmetric - - Image
1996 3 8 19 -15.3 120.0 41 -1 symmetric - - symmetric - - Image
1996 3 8 22 -15.5 120.1 41 -1 symmetric - - symmetric - - Image
1996 3 9 01 -15.9 120.1 41 -1 symmetric - - symmetric - - Image
1996 3 9 04 -16.1 119.7 47 -1 symmetric - - symmetric - - Image
1996 3 9 07 -16.0 119.8 47 -1 symmetric - - symmetric - - Image
1996 3 9 10 -15.9 119.8 47 -1 symmetric - - symmetric - - Image
1996 3 9 13 -15.8 119.9 47 -1 symmetric - - symmetric - - Image
1996 3 9 16 -15.7 120.0 54 -1 symmetric - - symmetric - - Image
1996 3 9 19 -15.7 120.2 54 -1 symmetric - - symmetric - - Image
1996 3 9 22 -15.8 120.4 54 -1 symmetric - - symmetric - - Image
1996 3 10 01 -15.9 120.6 60 -1 symmetric - - symmetric - - Image
1996 3 10 04 -16.1 120.9 60 -1 symmetric - - symmetric - - Image
1996 3 10 07 -16.4 121.2 66 -1 symmetric - - symmetric - - Image
1996 3 10 10 -16.7 121.2 66 -1 symmetric - - symmetric - - Image
1996 3 10 13 -17.0 121.2 70 -1 symmetric - - symmetric - - Image
1996 3 10 16 -17.2 121.1 70 -1 symmetric - - symmetric - - Image
1996 3 10 19 -17.3 120.8 76 -1 symmetric - - symmetric - - Image
1996 3 10 22 -17.5 120.8 76 -1 symmetric - - symmetric - - Image
1996 3 11 01 -17.8 120.8 80 -1 symmetric - - symmetric - - Image
1996 3 11 04 -18.1 120.6 80 -1 symmetric - - symmetric - - Image
1996 3 11 07 -18.4 120.4 80 -1 symmetric - - symmetric - - Image
1996 3 11 10 -18.7 120.2 80 -1 symmetric - - symmetric - - Image
1996 3 11 13 -19.1 120.0 84 -1 symmetric - - symmetric - - Image
1996 3 11 16 -19.3 119.9 93 -1 symmetric - - symmetric - - Image
1996 3 11 19 -19.7 119.7 97 -1 symmetric - - symmetric - - Image
1996 3 11 22 -20.0 119.5 97 -1 symmetric - - symmetric - - Image
1996 3 12 01 -20.4 119.4 89 -1 symmetric - - symmetric - - Image
1996 3 12 04 -20.8 119.4 80 -1 symmetric - - symmetric - - Image
1996 3 12 07 -21.2 119.4 70 -1 symmetric - - symmetric - - Image
1996 3 12 10 -21.7 119.6 60 -1 symmetric - - symmetric - - Image
1996 3 12 13 -22.2 119.7 54 -1 symmetric - - symmetric - - Image
1996 3 12 16 -22.7 119.8 47 -1 symmetric - - symmetric - - Image
1996 3 12 19 -23.3 120.0 41 -1 symmetric - - symmetric - - Image
1996 3 12 22 -23.9 120.2 35 -1 symmetric - - symmetric - - Image
1996 3 13 01 -24.5 120.4 35 -1 symmetric - - symmetric - - Image
1996 3 13 04 -25.1 120.6 35 -1 symmetric - - symmetric - - Image
1996 3 13 07 -25.6 120.8 35 -1 symmetric - - symmetric - - Image
1996 3 13 10 -26.1 121.2 35 -1 symmetric - - symmetric - - Image
1996 3 13 13 -26.7 121.8 29 -1 symmetric - - symmetric - - Image
1996 3 13 16 -27.3 122.4 29 -1 symmetric - - symmetric - - Image
1996 3 13 19 -28.0 123.2 29 -1 symmetric - - symmetric - - Image
1996 3 13 22 -28.7 124.2 29 -1 symmetric - - symmetric - - Image
1996 3 14 01 -29.4 125.4 27 -1 symmetric - - symmetric - - Image
< Cyclone 199611 1996 Season Cyclone 199613 >

Help